South Fork, PA (15956)

4:36 PM EST on January 31, 2015 (GMT -0500)
Jackson Twp - Swigle Mountain Road | Change Station
CLOSE
Current Station
Personal Weather Station
Location: Mineral Point, PA
Elevation: 2277 ft
Nearby Weather Stations
Active Advisory: Winter Storm Warning

Elev 2277 ft 40.40 °N, 78.80 °W | Updated 4 seconds ago

Clear
Clear
18.7 °F
Feels Like 10 °F
N
6.3
Wind Variable Wind from West
Gusts 6.3 mph

Today
High -- | Low -- °F
--% Chance of Precip.
Yesterday
High -- | Low -- °F
Precip. -- in
7:25 AM 5:32 PM
Waxing Gibbous, 91% visible
Pressure 30.13 in
Visibility 1.8 miles
Clouds Few 100 ft
Windchill 10 °F
Dew Point 9 °F
Humidity 66%
Rainfall 0.00 in
Snow Depth Not available.
UV 1 out of 12
Pollen .10 out of 12
Air Quality Not available.
Flu Activity Not available.
SPECI KJST 312123Z AUTO 27008KT 1 3/4SM HZ FEW001 M07/M12 A3013 RMK AO2 T10671122

More Conditions Fewer Conditions

Pressure 30.13 in
Visibility 1.8 miles
Clouds Few 100 ft
Windchill 10 °F
Dew Point 9 °F
Humidity 66%
Rainfall 0.00 in
Snow Depth Not available.
UV 1 out of 12
Pollen .10 out of 12
Air Quality Not available.
Flu Activity Not available.
SPECI KJST 312123Z AUTO 27008KT 1 3/4SM HZ FEW001 M07/M12 A3013 RMK AO2 T10671122

More Conditions Fewer Conditions

10-Day Weather Forecast

Almanac

Astronomy

Jan. 31, 2015 Rise Set
Actual Time
Civil Twilight
Nautical Twilight
Astronomical Twilight
Moon
Length of Visible Light
Length of Day
Tomorrow will be .
, % of the Moon is Illuminated

Today's Extremes

State Highs State Lows

Community

WunderPhotos

Upload Photos

1,792,210 photos uploaded!

WunderBlogs® & News

Nearby

Air Quality

  Air Quality AQ Index Pollutant
Not available.

Snow Depth

Station Depth Elevation

Earthquake Activity

City Distance Mag. Time & Date
Minimum magnitude displayed is 2.5.

Coastal Water Temperatures

Place Temperature

Nearby Weather Stations